Time;durP1;ratioP1;P1;durP2;ratioP2;P2;SDS_P1;SDS_P2;PMS_P1;PMS_P2;Temp;Humidity;BMP_temperature;BMP_pressure;BME280_temperature;BME280_humidity;BME280_pressure;Samples;Min_cycle;Max_cycle;Signal;HPM_P1;HPM_P2
2022/09/30 00:02:08;;;;;;;0.10;0.10;;;;;;;11.01;58.97;97070.41;8034858;29;20455;-76
2022/09/30 00:06:11;;;;;;;0.10;0.10;;;;;;;11.07;58.38;97070.03;8036054;29;20298;-76
2022/09/30 00:10:16;;;;;;;0.10;0.10;;;;;;;11.09;58.19;97075.13;8036065;29;20242;-76
2022/09/30 00:14:23;;;;;;;0.10;0.10;;;;;;;11.12;57.97;97073.19;8036072;29;20283;-75
2022/09/30 00:18:26;;;;;;;0.10;0.10;;;;;;;10.98;58.14;97069.75;8035532;29;20522;-74
2022/09/30 00:22:28;;;;;;;0.10;0.10;;;;;;;10.96;58.23;97065.47;8035718;29;20480;-75
2022/09/30 00:26:32;;;;;;;0.10;0.10;;;;;;;10.99;58.01;97067.06;8035654;29;20330;-75
2022/09/30 00:30:36;;;;;;;0.10;0.10;;;;;;;10.98;57.89;97067.97;8035475;29;20315;-76
2022/09/30 00:34:39;;;;;;;0.10;0.10;;;;;;;10.94;57.32;97072.53;8035518;29;20242;-76
2022/09/30 00:38:42;;;;;;;0.10;0.10;;;;;;;10.79;57.19;97085.56;8035234;29;20557;-75
2022/09/30 00:42:45;;;;;;;0.10;0.10;;;;;;;10.80;57.24;97095.84;8035271;29;20300;-76
2022/09/30 00:46:49;;;;;;;0.10;0.10;;;;;;;10.73;57.78;97100.53;8035041;29;20426;-76
2022/09/30 00:50:54;;;;;;;0.10;0.10;;;;;;;10.69;57.86;97088.69;8035141;29;20249;-75
2022/09/30 00:54:59;;;;;;;0.10;0.10;;;;;;;10.69;57.88;97080.91;8034883;29;20235;-75
2022/09/30 00:59:05;;;;;;;0.10;0.10;;;;;;;10.73;58.01;97084.16;8034804;29;20399;-75
2022/09/30 01:03:09;;;;;;;0.10;0.10;;;;;;;10.70;57.81;97081.75;8034909;29;20242;-75
2022/09/30 01:07:13;;;;;;;0.10;0.10;;;;;;;10.61;58.10;97095.25;8053900;23;20300;-76
2022/09/30 01:11:16;;;;;;;0.10;0.10;;;;;;;10.67;57.98;97097.47;8033123;29;20243;-76
2022/09/30 01:15:20;;;;;;;0.10;0.10;;;;;;;10.66;58.32;97099.25;8033819;29;20279;-76
2022/09/30 01:19:34;;;;;;;0.10;0.10;;;;;;;10.68;58.15;97101.72;8033711;29;20279;-77
2022/09/30 01:23:56;;;;;;;0.10;0.10;;;;;;;10.50;58.55;97101.03;8033210;29;20243;-76
2022/09/30 01:28:30;;;;;;;0.10;0.10;;;;;;;10.63;58.51;97102.00;8033495;29;20536;-76
2022/09/30 01:32:46;;;;;;;0.10;0.10;;;;;;;10.62;57.59;97110.66;8032902;29;20242;-76
2022/09/30 01:37:01;;;;;;;0.10;0.10;;;;;;;10.61;57.72;97113.38;8032920;29;20235;-77
2022/09/30 01:41:07;;;;;;;0.10;0.10;;;;;;;10.56;58.22;97105.84;8032970;29;20246;-76
2022/09/30 01:45:15;;;;;;;0.13;0.13;;;;;;;10.54;58.97;97107.72;8032727;29;20253;-76
2022/09/30 01:49:24;;;;;;;0.10;0.10;;;;;;;10.47;59.19;97108.97;8032730;29;20235;-76
2022/09/30 01:53:31;;;;;;;0.10;0.10;;;;;;;10.44;59.01;97110.00;8032120;29;20445;-79
2022/09/30 01:57:42;;;;;;;0.00;0.00;;;;;;;10.34;58.96;97109.69;8032655;29;20239;-76
2022/09/30 02:01:49;;;;;;;0.00;0.00;;;;;;;10.45;58.52;97110.81;8032204;29;28016;-77
2022/09/30 02:05:56;;;;;;;0.10;0.10;;;;;;;10.33;58.29;97110.59;8032181;29;20287;-77
2022/09/30 02:10:01;;;;;;;0.10;0.10;;;;;;;10.22;58.02;97120.69;8032148;29;20238;-77
2022/09/30 02:14:06;;;;;;;0.10;0.10;;;;;;;10.10;57.41;97119.63;8032091;29;20271;-76
2022/09/30 02:18:13;;;;;;;0.10;0.10;;;;;;;10.06;57.34;97115.56;8031906;29;20276;-77
2022/09/30 02:22:20;;;;;;;0.10;0.10;;;;;;;10.04;58.10;97119.16;8031602;29;20266;-77
2022/09/30 02:26:25;;;;;;;0.10;0.10;;;;;;;10.05;58.49;97126.84;8031644;29;20241;-77
2022/09/30 02:30:29;;;;;;;0.10;0.10;;;;;;;10.06;58.19;97136.25;8031161;29;20287;-76
2022/09/30 02:34:34;;;;;;;0.10;0.10;;;;;;;10.08;58.16;97141.34;8031496;29;20538;-76
2022/09/30 02:38:41;;;;;;;0.10;0.10;;;;;;;9.99;58.34;97147.84;8031344;29;20249;-79
2022/09/30 02:42:44;;;;;;;0.10;0.10;;;;;;;10.18;58.16;97140.75;8030703;29;20341;-77
2022/09/30 02:46:53;;;;;;;0.10;0.10;;;;;;;10.14;58.53;97136.66;8030963;29;20234;-77
2022/09/30 02:51:00;;;;;;;0.10;0.10;;;;;;;9.88;59.16;97150.19;8030734;29;20334;-77
2022/09/30 02:55:14;;;;;;;0.10;0.10;;;;;;;10.01;58.47;97152.94;8030743;29;20414;-78
2022/09/30 02:59:18;;;;;;;0.10;0.10;;;;;;;10.01;58.62;97150.34;8030852;29;20249;-77
2022/09/30 03:03:23;;;;;;;0.20;0.20;;;;;;;10.05;58.59;97151.84;8030411;29;20241;-78
2022/09/30 03:07:26;;;;;;;0.10;0.10;;;;;;;10.10;58.12;97162.78;8029859;29;20258;-77
2022/09/30 03:11:31;;;;;;;0.10;0.10;;;;;;;10.00;58.21;97165.03;8030427;29;20299;-77
2022/09/30 03:15:43;;;;;;;0.10;0.10;;;;;;;9.99;58.06;97158.19;8030424;29;20242;-77
2022/09/30 03:20:14;;;;;;;0.10;0.10;;;;;;;10.04;57.69;97161.38;8030383;29;20411;-77
2022/09/30 03:24:30;;;;;;;0.10;0.10;;;;;;;10.03;57.32;97172.63;8030531;29;20239;-77
2022/09/30 03:28:37;;;;;;;0.10;0.10;;;;;;;10.01;57.90;97181.38;8029877;29;20287;-76
2022/09/30 03:33:01;;;;;;;0.10;0.10;;;;;;;9.95;57.54;97183.38;8030240;29;20254;-78
2022/09/30 03:37:11;;;;;;;0.10;0.10;;;;;;;9.78;57.93;97188.63;8034814;29;20234;-77
2022/09/30 03:41:18;;;;;;;0.10;0.10;;;;;;;9.74;57.99;97190.53;8035702;29;20238;-77
2022/09/30 03:45:25;;;;;;;0.10;0.10;;;;;;;9.84;57.90;97193.47;8035801;29;20432;-80
2022/09/30 03:49:30;;;;;;;0.10;0.10;;;;;;;9.88;57.92;97196.72;8035079;29;20238;-77
2022/09/30 03:53:38;;;;;;;0.10;0.10;;;;;;;9.70;57.81;97209.72;8035357;29;20295;-78
2022/09/30 03:57:43;;;;;;;0.10;0.10;;;;;;;9.68;58.55;97197.81;8035518;29;20314;-77
2022/09/30 04:01:47;;;;;;;0.10;0.10;;;;;;;9.74;57.99;97208.66;8035085;29;20298;-79
2022/09/30 04:05:50;;;;;;;0.10;0.10;;;;;;;9.64;58.26;97209.22;8035068;29;20480;-78
2022/09/30 04:09:52;;;;;;;0.10;0.10;;;;;;;9.75;58.44;97212.91;8035204;29;20517;-78
2022/09/30 04:13:55;;;;;;;0.10;0.10;;;;;;;9.82;58.17;97208.25;8035128;29;20238;-78
2022/09/30 04:17:59;;;;;;;0.10;0.10;;;;;;;9.82;58.20;97210.81;8035029;29;20241;-78
2022/09/30 04:22:02;;;;;;;0.10;0.10;;;;;;;9.68;58.87;97219.31;8035217;29;20266;-78
2022/09/30 04:26:06;;;;;;;0.10;0.10;;;;;;;9.78;59.10;97220.50;8034688;29;20263;-78
2022/09/30 04:30:09;;;;;;;0.10;0.10;;;;;;;9.71;59.02;97221.75;8034399;29;20239;-78
2022/09/30 04:34:13;;;;;;;0.10;0.10;;;;;;;9.73;59.21;97234.59;8034503;29;20410;-78
2022/09/30 04:38:17;;;;;;;0.10;0.10;;;;;;;9.82;58.97;97241.03;8034313;29;20406;-78
2022/09/30 04:42:19;;;;;;;0.10;0.10;;;;;;;9.67;59.79;97243.53;8034159;29;20250;-78
2022/09/30 04:46:22;;;;;;;0.10;0.10;;;;;;;9.79;60.08;97237.69;8032993;29;20263;-78
2022/09/30 04:50:26;;;;;;;0.10;0.10;;;;;;;9.78;60.15;97233.41;8033896;29;20246;-76
2022/09/30 04:54:29;;;;;;;0.10;0.10;;;;;;;9.70;60.26;97237.34;8033784;29;20261;-77
2022/09/30 04:58:32;;;;;;;0.10;0.10;;;;;;;9.73;60.29;97238.03;8033415;29;20238;-78
2022/09/30 05:02:38;;;;;;;0.10;0.10;;;;;;;9.69;59.71;97246.84;8033298;29;20243;-78
2022/09/30 05:06:42;;;;;;;0.10;0.10;;;;;;;9.73;59.85;97242.38;8033606;29;20247;-80
2022/09/30 05:10:53;;;;;;;0.10;0.10;;;;;;;9.75;59.81;97246.53;8033846;29;20296;-80
2022/09/30 05:14:56;;;;;;;0.10;0.10;;;;;;;9.71;60.15;97252.78;8033424;29;20250;-80
2022/09/30 05:18:59;;;;;;;0.20;0.20;;;;;;;9.48;60.11;97253.13;8033643;29;20283;-81
2022/09/30 05:23:05;;;;;;;0.27;0.27;;;;;;;9.42;60.82;97261.19;8032858;29;20247;-80
2022/09/30 05:27:07;;;;;;;0.30;0.30;;;;;;;9.35;61.73;97264.09;8033293;29;20518;-80
2022/09/30 05:31:12;;;;;;;0.10;0.10;;;;;;;9.71;61.01;97270.88;8033153;29;20238;-80
2022/09/30 05:35:15;;;;;;;0.20;0.20;;;;;;;9.67;60.57;97279.72;8032641;29;20259;-80
2022/09/30 05:39:19;;;;;;;0.10;0.10;;;;;;;9.60;60.88;97275.78;8032638;29;20238;-79
2022/09/30 05:43:22;;;;;;;0.20;0.20;;;;;;;9.71;60.65;97282.94;8032449;29;20238;-79
2022/09/30 05:47:25;;;;;;;0.10;0.10;;;;;;;9.73;60.97;97284.56;8032267;29;20542;-76
2022/09/30 05:51:28;;;;;;;0.10;0.10;;;;;;;9.91;60.52;97287.94;8032245;29;20239;-80
2022/09/30 05:55:32;;;;;;;0.10;0.10;;;;;;;9.93;60.01;97287.84;8032240;29;20246;-79
2022/09/30 05:59:40;;;;;;;0.10;0.10;;;;;;;9.73;60.42;97307.00;8035174;29;20315;-80
2022/09/30 06:03:44;;;;;;;0.10;0.10;;;;;;;9.79;59.99;97306.69;8040125;29;20243;-78
2022/09/30 06:07:47;;;;;;;0.10;0.10;;;;;;;9.78;60.42;97313.59;8032977;29;20253;-79
2022/09/30 06:11:51;;;;;;;0.10;0.10;;;;;;;9.90;60.54;97317.31;8034494;29;20238;-78
2022/09/30 06:15:57;;;;;;;0.20;0.20;;;;;;;9.83;59.59;97321.13;8031504;29;20236;-79
2022/09/30 06:20:00;;;;;;;0.10;0.10;;;;;;;9.79;60.77;97324.78;8031347;29;20515;-78
2022/09/30 06:24:03;;;;;;;0.10;0.10;;;;;;;10.05;61.70;97328.63;8031150;29;20251;-79
2022/09/30 06:28:08;;;;;;;0.10;0.10;;;;;;;10.04;59.89;97334.69;8030529;29;20524;-80
2022/09/30 06:32:10;;;;;;;0.10;0.10;;;;;;;10.14;60.15;97340.22;8031001;29;20234;-77
2022/09/30 06:36:13;;;;;;;0.10;0.10;;;;;;;10.29;60.59;97344.56;8030601;29;20239;-79
2022/09/30 06:40:16;;;;;;;0.10;0.10;;;;;;;10.26;60.57;97344.75;8030413;29;20342;-78
2022/09/30 06:44:20;;;;;;;0.10;0.10;;;;;;;10.20;60.14;97352.81;8030917;29;20333;-78
2022/09/30 06:48:23;;;;;;;0.10;0.10;;;;;;;10.09;60.18;97362.91;8030984;29;20541;-78
2022/09/30 06:52:38;;;;;;;0.10;0.10;;;;;;;10.18;60.59;97357.25;8030122;29;20526;-78
2022/09/30 06:56:41;;;;;;;0.00;0.00;;;;;;;10.26;59.87;97356.84;8030935;29;20235;-78
2022/09/30 07:00:46;;;;;;;0.10;0.10;;;;;;;10.34;59.78;97350.38;8030321;29;20234;-79
2022/09/30 07:04:49;;;;;;;0.10;0.10;;;;;;;10.33;60.46;97351.28;8030333;29;20234;-78
2022/09/30 07:08:52;;;;;;;0.10;0.10;;;;;;;10.20;60.70;97362.34;8030031;29;20239;-79
2022/09/30 07:12:55;;;;;;;0.33;0.33;;;;;;;10.14;59.96;97371.25;8030104;29;20268;-80
2022/09/30 07:17:01;;;;;;;0.10;0.10;;;;;;;10.32;60.31;97379.88;8030681;29;20400;-79
2022/09/30 07:21:04;;;;;;;0.10;0.10;;;;;;;10.22;60.34;97383.81;8030115;29;20457;-79
2022/09/30 07:25:08;;;;;;;0.10;0.10;;;;;;;10.41;60.61;97391.47;8030091;29;20235;-79
2022/09/30 07:29:12;;;;;;;0.10;0.10;;;;;;;10.54;59.71;97397.66;8030191;29;20250;-79
2022/09/30 07:33:16;;;;;;;0.10;0.10;;;;;;;9.77;62.36;97409.38;8030257;29;20262;-79
2022/09/30 07:37:20;;;;;;;0.10;0.10;;;;;;;10.42;60.86;97411.28;8030001;29;20239;-79
2022/09/30 07:41:26;;;;;;;0.10;0.10;;;;;;;10.63;60.20;97404.13;8030248;29;20239;-79
2022/09/30 07:45:28;;;;;;;0.23;0.23;;;;;;;10.60;60.87;97410.28;8029775;29;20438;-79
2022/09/30 07:49:33;;;;;;;0.10;0.10;;;;;;;10.64;60.23;97422.16;8029956;29;20242;-79
2022/09/30 07:53:36;;;;;;;0.10;0.10;;;;;;;10.94;60.51;97421.41;8029892;29;20242;-79
2022/09/30 07:57:38;;;;;;;0.10;0.10;;;;;;;10.88;60.33;97427.78;8029392;29;20239;-79
2022/09/30 08:01:41;;;;;;;0.10;0.10;;;;;;;10.91;61.25;97435.38;8029542;29;20247;-78
2022/09/30 08:05:47;;;;;;;0.10;0.10;;;;;;;10.80;61.52;97442.91;8029259;29;20247;-79
2022/09/30 08:09:50;;;;;;;0.20;0.20;;;;;;;10.74;61.12;97444.06;8029713;29;20545;-79
2022/09/30 08:13:53;;;;;;;0.10;0.10;;;;;;;11.25;59.95;97440.47;8029760;29;20242;-79
2022/09/30 08:17:56;;;;;;;0.10;0.10;;;;;;;11.37;59.80;97441.56;8029773;29;20230;-79
2022/09/30 08:22:01;;;;;;;0.00;0.00;;;;;;;11.15;60.95;97448.75;8032612;29;20258;-79
2022/09/30 08:26:11;;;;;;;0.10;0.10;;;;;;;11.36;59.71;97440.69;8034887;29;20227;-79
2022/09/30 08:30:14;;;;;;;0.10;0.10;;;;;;;11.41;59.31;97443.88;8035125;29;20238;-79
2022/09/30 08:34:16;;;;;;;0.10;0.10;;;;;;;11.97;59.21;97453.72;8034904;29;20537;-80
2022/09/30 08:38:21;;;;;;;0.10;0.10;;;;;;;12.31;57.91;97455.19;8034704;29;20558;-79
2022/09/30 08:42:37;;;;;;;0.07;0.07;;;;;;;12.28;57.98;97460.53;8034631;29;20234;-79
2022/09/30 08:46:48;;;;;;;0.10;0.10;;;;;;;12.33;58.73;97463.72;8034432;29;20235;-79
2022/09/30 08:51:01;;;;;;;0.10;0.10;;;;;;;14.47;71.31;97473.59;8034522;29;20231;-77
2022/09/30 08:55:06;;;;;;;0.10;0.10;;;;;;;14.41;57.15;97472.25;8033912;29;20265;-78
2022/09/30 08:59:27;;;;;;;0.00;0.00;;;;;;;14.37;56.78;97481.16;8034390;29;20267;-78
2022/09/30 09:03:32;;;;;;;0.00;0.00;;;;;;;14.92;56.65;97483.59;8033774;29;20243;-78
2022/09/30 09:07:42;;;;;;;0.00;0.00;;;;;;;14.06;54.91;97485.00;8034314;29;20308;-81
2022/09/30 09:11:57;;;;;;;0.00;0.00;;;;;;;13.70;56.28;97483.88;8034333;29;20280;-80
2022/09/30 09:16:04;;;;;;;0.00;0.00;;;;;;;13.43;57.27;97491.69;8034333;29;20239;-79
2022/09/30 09:20:14;;;;;;;0.10;0.10;;;;;;;13.70;57.07;97494.28;8034148;29;20238;-79
2022/09/30 09:24:19;;;;;;;0.00;0.00;;;;;;;13.73;55.75;97488.88;8033979;29;20534;-81
2022/09/30 09:28:29;;;;;;;0.00;0.00;;;;;;;14.01;56.14;97492.28;8033705;29;20425;-81
2022/09/30 09:32:33;;;;;;;0.00;0.00;;;;;;;14.05;56.36;97494.59;8032537;29;20261;-81
2022/09/30 09:36:46;;;;;;;0.00;0.00;;;;;;;14.32;56.08;97491.09;8033393;29;20568;-80
2022/09/30 09:40:58;;;;;;;0.00;0.00;;;;;;;14.81;54.46;97490.41;8033192;29;20530;-79
2022/09/30 09:45:03;;;;;;;0.00;0.00;;;;;;;14.65;53.82;97492.38;8033251;29;20280;-77
2022/09/30 09:49:32;;;;;;;0.00;0.00;;;;;;;14.43;54.38;97491.19;8032992;29;20235;-78
2022/09/30 09:53:43;;;;;;;0.10;0.10;;;;;;;15.01;53.46;97491.59;8032206;29;20239;-79
2022/09/30 09:57:46;;;;;;;0.00;0.00;;;;;;;15.02;53.63;97480.25;8032821;29;20589;-79
2022/09/30 10:01:52;;;;;;;0.00;0.00;;;;;;;15.14;53.71;97483.75;8032594;29;20250;-81
2022/09/30 10:06:01;;;;;;;0.00;0.00;;;;;;;14.96;53.00;97490.25;8032502;29;20247;-80
2022/09/30 10:10:12;;;;;;;0.00;0.00;;;;;;;15.79;51.72;97485.19;8032366;29;20537;-80
2022/09/30 10:14:18;;;;;;;0.00;0.00;;;;;;;16.50;52.34;97498.22;8031736;29;20237;-79
2022/09/30 10:18:25;;;;;;;0.00;0.00;;;;;;;16.94;50.78;97480.91;8032119;29;20227;-79
2022/09/30 10:22:29;;;;;;;0.03;0.03;;;;;;;17.43;48.21;97483.25;8030800;29;20235;-79
2022/09/30 10:26:44;;;;;;;0.00;0.00;;;;;;;17.26;47.44;97476.75;8031336;29;20447;-79
2022/09/30 10:30:53;;;;;;;0.00;0.00;;;;;;;17.14;49.20;97478.56;8031450;29;20231;-79
2022/09/30 10:35:03;;;;;;;0.00;0.00;;;;;;;16.93;48.89;97479.28;8031769;29;20242;-79
2022/09/30 10:39:07;;;;;;;0.00;0.00;;;;;;;16.85;49.27;97476.44;8031653;29;20231;-80
2022/09/30 10:43:22;;;;;;;0.00;0.00;;;;;;;17.33;48.47;97475.31;8030850;29;20238;-79
2022/09/30 10:47:25;;;;;;;0.00;0.00;;;;;;;17.22;49.23;97473.53;8030968;29;20237;-80
2022/09/30 10:51:32;;;;;;;0.00;0.00;;;;;;;17.00;49.21;97482.22;8031336;29;20400;-79
2022/09/30 10:55:41;;;;;;;0.00;0.00;;;;;;;17.42;48.09;97476.34;8030970;29;20359;-79
2022/09/30 10:59:46;;;;;;;0.00;0.00;;;;;;;17.43;48.79;97478.03;8030960;29;20563;-81
2022/09/30 11:04:03;;;;;;;0.00;0.00;;;;;;;17.30;49.07;97478.97;8030345;29;20264;-78
2022/09/30 11:08:13;;;;;;;0.00;0.00;;;;;;;17.12;49.20;97478.66;8030145;29;20238;-78
2022/09/30 11:12:22;;;;;;;0.00;0.00;;;;;;;17.49;48.72;97477.53;8030197;29;20476;-77
2022/09/30 11:16:31;;;;;;;0.00;0.00;;;;;;;17.77;47.54;97494.47;8034078;29;20235;-79
2022/09/30 11:20:40;;;;;;;0.00;0.00;;;;;;;17.41;46.96;97491.22;8029718;29;20530;-77
2022/09/30 11:24:46;;;;;;;0.00;0.00;;;;;;;17.22;47.50;97483.19;8030321;29;20445;-78
2022/09/30 11:28:59;;;;;;;0.00;0.00;;;;;;;17.05;46.17;97490.56;8029908;29;20234;-75
2022/09/30 11:33:16;;;;;;;0.00;0.00;;;;;;;16.90;44.40;97487.34;8029677;29;20230;-81
2022/09/30 11:37:26;;;;;;;0.00;0.00;;;;;;;17.16;46.58;97468.78;8029846;29;20522;-77
2022/09/30 11:41:32;;;;;;;0.00;0.00;;;;;;;17.02;46.63;97484.72;8029173;29;20235;-78
2022/09/30 11:45:45;;;;;;;0.00;0.00;;;;;;;17.60;44.54;97490.59;8030029;29;20439;-81
2022/09/30 11:49:59;;;;;;;0.00;0.00;;;;;;;16.53;45.25;97476.28;8030046;29;20439;-80
2022/09/30 11:54:15;;;;;;;0.00;0.00;;;;;;;16.74;46.36;97477.22;8029965;29;20238;-79
2022/09/30 11:58:22;;;;;;;0.00;0.00;;;;;;;16.94;47.46;97480.09;8034504;29;20251;-79
2022/09/30 12:02:45;;;;;;;0.00;0.00;;;;;;;16.93;47.63;97473.22;8035482;29;20230;-79
2022/09/30 12:06:52;;;;;;;0.00;0.00;;;;;;;17.01;47.75;97476.06;8035316;29;20242;-79
2022/09/30 12:10:57;;;;;;;0.00;0.00;;;;;;;16.72;48.33;97483.53;8035342;29;20235;-81
2022/09/30 12:15:04;;;;;;;0.00;0.00;;;;;;;16.87;48.12;97482.38;8035311;29;20257;-79
2022/09/30 12:19:14;;;;;;;0.00;0.00;;;;;;;17.73;47.19;97480.78;8035319;29;20238;-79
2022/09/30 12:23:21;;;;;;;0.00;0.00;;;;;;;18.31;46.83;97479.56;8034982;29;20238;-79
2022/09/30 12:27:25;;;;;;;0.00;0.00;;;;;;;18.10;46.78;97479.56;8034757;29;20249;-78
2022/09/30 12:31:50;;;;;;;0.00;0.00;;;;;;;17.74;44.84;97478.97;8034472;29;20242;-78
2022/09/30 12:36:14;;;;;;;0.00;0.00;;;;;;;17.86;45.00;97477.19;8035092;29;20283;-80
2022/09/30 12:40:29;;;;;;;0.00;0.00;;;;;;;18.60;40.86;97482.38;8034384;29;20237;-79
2022/09/30 12:44:56;;;;;;;0.00;0.00;;;;;;;18.91;40.12;97490.28;8033809;29;20242;-82
2022/09/30 12:49:02;;;;;;;0.00;0.00;;;;;;;18.59;40.01;97480.72;8034356;29;20235;-80
2022/09/30 12:53:12;;;;;;;0.00;0.00;;;;;;;18.51;41.29;97488.41;8034232;29;20250;-81
2022/09/30 12:57:21;;;;;;;0.00;0.00;;;;;;;18.30;40.67;97484.00;8033640;29;20260;-79
2022/09/30 13:01:24;;;;;;;0.00;0.00;;;;;;;18.41;40.96;97482.25;8033570;29;20235;-81
2022/09/30 13:05:52;;;;;;;0.00;0.00;;;;;;;18.55;39.96;97482.75;8032918;29;20499;-80
2022/09/30 13:10:24;;;;;;;0.00;0.00;;;;;;;18.73;40.40;97485.63;8032399;29;20245;-79
2022/09/30 13:14:32;;;;;;;0.00;0.00;;;;;;;18.64;39.73;97486.41;8031949;29;20250;-78
2022/09/30 13:19:00;;;;;;;0.00;0.00;;;;;;;18.65;39.21;97492.47;8033374;29;20231;-79
2022/09/30 13:23:04;;;;;;;0.00;0.00;;;;;;;18.73;39.22;97492.66;8032935;29;20238;-79
2022/09/30 13:27:14;;;;;;;0.00;0.00;;;;;;;19.04;38.34;97490.03;8033062;29;20273;-79
2022/09/30 13:31:18;;;;;;;0.00;0.00;;;;;;;19.18;38.64;97489.69;8032669;29;20240;-77
2022/09/30 13:35:34;;;;;;;0.00;0.00;;;;;;;19.54;38.12;97490.03;8032697;29;20241;-79
2022/09/30 13:39:47;;;;;;;0.00;0.00;;;;;;;19.67;38.19;97489.78;8032140;29;20231;-79
2022/09/30 13:44:01;;;;;;;0.00;0.00;;;;;;;19.42;38.47;97480.59;8032052;29;20246;-79
2022/09/30 13:48:11;;;;;;;0.00;0.00;;;;;;;19.48;39.59;97482.72;8032322;29;20288;-79
2022/09/30 13:52:19;;;;;;;0.00;0.00;;;;;;;19.32;39.39;97497.19;8032069;29;20244;-79
2022/09/30 13:56:26;;;;;;;0.00;0.00;;;;;;;19.24;38.92;97489.13;8032110;29;20513;-79
2022/09/30 14:00:41;;;;;;;0.00;0.00;;;;;;;19.25;39.63;97495.25;8031689;29;20382;-78
2022/09/30 14:04:53;;;;;;;0.00;0.00;;;;;;;18.85;39.64;97501.28;8031412;29;20476;-78
2022/09/30 14:09:17;;;;;;;0.00;0.00;;;;;;;19.32;38.64;97498.97;8031770;29;20437;-79
2022/09/30 14:13:31;;;;;;;0.00;0.00;;;;;;;19.61;39.60;97498.19;8031673;29;20232;-79
2022/09/30 14:17:41;;;;;;;0.00;0.00;;;;;;;19.73;38.73;97502.41;8031401;29;20244;-79
2022/09/30 14:21:47;;;;;;;0.00;0.00;;;;;;;19.89;38.99;97507.09;8031814;29;20240;-79
2022/09/30 14:25:55;;;;;;;0.00;0.00;;;;;;;20.02;38.21;97512.91;8031532;29;20255;-79
2022/09/30 14:30:05;;;;;;;0.00;0.00;;;;;;;19.92;38.10;97510.28;8031929;29;20250;-79
2022/09/30 14:34:10;;;;;;;0.00;0.00;;;;;;;20.02;38.03;97506.84;8031375;29;20256;-79
2022/09/30 14:38:17;;;;;;;0.00;0.00;;;;;;;20.04;37.15;97503.09;8031160;29;20239;-80
2022/09/30 14:42:28;;;;;;;0.00;0.00;;;;;;;20.10;37.36;97497.31;8031352;29;20257;-79
2022/09/30 14:46:35;;;;;;;0.00;0.00;;;;;;;19.98;37.23;97505.47;8030587;29;20237;-79
2022/09/30 14:50:43;;;;;;;0.00;0.00;;;;;;;19.94;37.82;97509.34;8030962;29;20358;-79
2022/09/30 14:54:47;;;;;;;0.00;0.00;;;;;;;19.89;37.10;97518.44;8031018;29;20331;-80
2022/09/30 14:58:51;;;;;;;0.00;0.00;;;;;;;19.76;38.10;97514.44;8030643;29;20260;-79
2022/09/30 15:02:56;;;;;;;0.00;0.00;;;;;;;19.63;38.49;97509.38;8030786;29;20236;-79
2022/09/30 15:07:00;;;;;;;0.00;0.00;;;;;;;19.57;38.37;97505.50;8030269;29;20274;-80
2022/09/30 15:11:03;;;;;;;0.00;0.00;;;;;;;19.53;37.86;97507.59;8030139;29;20242;-80
2022/09/30 15:15:25;;;;;;;0.00;0.00;;;;;;;19.32;37.28;97512.09;8029911;29;20241;-80
2022/09/30 15:19:33;;;;;;;0.00;0.00;;;;;;;19.26;37.68;97513.47;8029414;29;20237;-79
2022/09/30 15:23:39;;;;;;;0.00;0.00;;;;;;;19.15;37.59;97505.69;8030020;29;20323;-80
2022/09/30 15:27:42;;;;;;;0.00;0.00;;;;;;;18.52;38.09;97505.78;8029770;29;20244;-77
2022/09/30 15:31:46;;;;;;;0.00;0.00;;;;;;;18.82;38.81;97509.44;8032566;29;20243;-79
2022/09/30 15:35:51;;;;;;;0.00;0.00;;;;;;;18.53;38.28;97515.31;8036753;29;20555;-80
2022/09/30 15:44:17;;;;;;;0.00;0.00;;;;;;;18.20;39.43;97501.47;8036146;29;20238;-79
2022/09/30 15:48:34;;;;;;;0.00;0.00;;;;;;;18.15;40.58;97509.69;8035769;29;20346;-78
2022/09/30 15:52:40;;;;;;;0.00;0.00;;;;;;;17.96;41.88;97506.91;8035214;29;20238;-79
2022/09/30 15:56:43;;;;;;;0.00;0.00;;;;;;;17.59;40.61;97513.31;8035811;29;20239;-79
2022/09/30 16:00:46;;;;;;;0.00;0.00;;;;;;;17.49;41.90;97514.16;8035563;29;20250;-79
2022/09/30 16:04:52;;;;;;;0.00;0.00;;;;;;;17.39;43.66;97512.28;8035119;29;20522;-79
2022/09/30 16:09:00;;;;;;;0.00;0.00;;;;;;;17.23;43.81;97511.00;8035581;29;20261;-79
2022/09/30 16:13:03;;;;;;;0.00;0.00;;;;;;;17.06;45.08;97510.53;8035270;29;20238;-79
2022/09/30 16:17:07;;;;;;;0.00;0.00;;;;;;;16.85;44.98;97520.03;8035487;29;20238;-80
2022/09/30 16:21:28;;;;;;;0.00;0.00;;;;;;;16.76;45.13;97516.34;8034818;29;20233;-79
2022/09/30 16:25:33;;;;;;;0.00;0.00;;;;;;;16.71;46.53;97524.50;8034478;29;20239;-79
2022/09/30 16:29:36;;;;;;;0.00;0.00;;;;;;;16.55;47.70;97524.84;8034471;29;20253;-79
2022/09/30 16:33:41;;;;;;;0.00;0.00;;;;;;;16.40;47.00;97523.41;8034561;29;20239;-79
2022/09/30 16:37:47;;;;;;;0.00;0.00;;;;;;;16.30;47.63;97517.22;8034997;29;20258;-79
2022/09/30 16:41:53;;;;;;;0.00;0.00;;;;;;;16.27;48.24;97513.03;8034573;29;20234;-79
2022/09/30 16:45:57;;;;;;;0.00;0.00;;;;;;;16.16;48.93;97524.28;8033888;29;20238;-79
2022/09/30 16:50:00;;;;;;;0.00;0.00;;;;;;;16.05;50.47;97520.78;8033025;29;20231;-79
2022/09/30 16:54:03;;;;;;;0.00;0.00;;;;;;;15.96;51.35;97527.53;8033656;29;20234;-78
2022/09/30 16:58:11;;;;;;;0.00;0.00;;;;;;;15.86;52.01;97532.59;8034023;29;20532;-79
2022/09/30 17:02:14;;;;;;;0.00;0.00;;;;;;;15.72;53.71;97536.16;8033707;29;20226;-78
2022/09/30 17:06:20;;;;;;;0.00;0.00;;;;;;;15.72;58.51;97541.38;8032966;29;20328;-74
2022/09/30 17:10:24;;;;;;;0.10;0.00;;;;;;;16.15;58.14;97548.72;8033719;29;20286;-73
2022/09/30 17:14:29;;;;;;;0.07;0.07;;;;;;;15.89;53.11;97548.03;8032958;29;20249;-76
2022/09/30 17:18:32;;;;;;;0.00;0.00;;;;;;;15.57;53.06;97545.94;8033546;29;20238;-77
2022/09/30 17:22:34;;;;;;;0.00;0.00;;;;;;;15.41;53.48;97545.34;8032260;29;20269;-79
2022/09/30 17:26:38;;;;;;;0.03;0.03;;;;;;;15.30;53.76;97545.28;8032386;29;20242;-81
2022/09/30 17:30:43;;;;;;;0.10;0.10;;;;;;;15.23;54.07;97545.72;8032407;29;20238;-79
2022/09/30 17:34:46;;;;;;;0.00;0.00;;;;;;;15.17;54.24;97546.16;8032509;29;20234;-77
2022/09/30 17:38:53;;;;;;;0.00;0.00;;;;;;;15.03;54.75;97547.09;8032093;29;20231;-79
2022/09/30 17:43:09;;;;;;;0.00;0.00;;;;;;;14.98;54.55;97540.50;8031566;29;20245;-79
2022/09/30 17:47:14;;;;;;;0.00;0.00;;;;;;;14.94;54.76;97536.44;8031614;29;20267;-80
2022/09/30 17:51:17;;;;;;;0.00;0.00;;;;;;;14.85;55.08;97549.19;8031855;29;20258;-79
2022/09/30 17:55:20;;;;;;;0.00;0.00;;;;;;;14.73;55.87;97544.81;8031181;29;20546;-79
2022/09/30 17:59:24;;;;;;;0.00;0.00;;;;;;;14.68;55.88;97538.22;8031668;29;20253;-79
2022/09/30 18:03:29;;;;;;;0.00;0.00;;;;;;;14.55;56.25;97559.06;8031884;29;20235;-79
2022/09/30 18:07:32;;;;;;;0.00;0.00;;;;;;;14.53;56.31;97561.75;8031449;29;20250;-79
2022/09/30 18:11:34;;;;;;;0.00;0.00;;;;;;;14.48;56.02;97548.19;8031199;29;20242;-79
2022/09/30 18:15:45;;;;;;;0.00;0.00;;;;;;;14.33;56.55;97549.22;8031428;29;20245;-79
2022/09/30 18:19:49;;;;;;;0.00;0.00;;;;;;;14.22;56.85;97550.78;8031015;29;20231;-79
2022/09/30 18:23:52;;;;;;;0.00;0.00;;;;;;;14.25;56.68;97558.38;8031392;29;20260;-79
2022/09/30 18:27:57;;;;;;;0.00;0.00;;;;;;;14.11;56.97;97560.19;8030847;29;20239;-79
2022/09/30 18:32:01;;;;;;;0.00;0.00;;;;;;;14.08;57.31;97559.47;8030546;29;20548;-79
2022/09/30 18:36:05;;;;;;;0.00;0.00;;;;;;;14.03;57.18;97564.16;8030201;29;20346;-79
2022/09/30 18:40:10;;;;;;;0.00;0.00;;;;;;;14.00;56.94;97566.94;8030904;29;20230;-79
2022/09/30 18:44:13;;;;;;;0.00;0.00;;;;;;;13.86;57.45;97570.44;8040747;29;20253;-79
2022/09/30 18:48:15;;;;;;;0.00;0.00;;;;;;;13.78;57.64;97564.03;8030479;29;20530;-80
2022/09/30 18:52:20;;;;;;;0.00;0.00;;;;;;;13.75;57.37;97553.84;8030687;29;20239;-80
2022/09/30 18:56:24;;;;;;;0.00;0.00;;;;;;;13.75;57.05;97554.69;8030793;29;20344;-80
2022/09/30 19:00:29;;;;;;;0.10;0.10;;;;;;;13.70;57.10;97554.13;8030314;29;20249;-80
2022/09/30 19:04:32;;;;;;;0.00;0.00;;;;;;;13.72;56.43;97565.28;8029648;29;20241;-79
2022/09/30 19:08:37;;;;;;;0.00;0.00;;;;;;;13.52;56.56;97563.94;8029618;29;20243;-79
2022/09/30 19:12:43;;;;;;;0.07;0.07;;;;;;;13.54;56.83;97574.25;8029833;29;20245;-80
2022/09/30 19:16:46;;;;;;;0.00;0.00;;;;;;;13.45;56.53;97576.47;8030235;29;20274;-80
2022/09/30 19:20:49;;;;;;;0.00;0.00;;;;;;;13.45;57.06;97568.69;8030218;29;20409;-80
2022/09/30 19:24:54;;;;;;;0.00;0.00;;;;;;;13.36;57.27;97571.03;8029681;29;20243;-80
2022/09/30 19:28:57;;;;;;;0.00;0.00;;;;;;;13.34;56.80;97575.47;8029788;29;20239;-79